sensor_id;sensor_type;location;lat;lon;timestamp;temperature;humidity
66722;SHT31;53633;49.932;10.884;2022-08-21T00:01:38;16.21;92.17
66722;SHT31;53633;49.932;10.884;2022-08-21T00:04:06;16.38;92.31
66722;SHT31;53633;49.932;10.884;2022-08-21T00:06:34;16.37;92.37
66722;SHT31;53633;49.932;10.884;2022-08-21T00:09:02;16.32;92.24
66722;SHT31;53633;49.932;10.884;2022-08-21T00:11:32;16.32;92.46
66722;SHT31;53633;49.932;10.884;2022-08-21T00:13:59;16.31;92.43
66722;SHT31;53633;49.932;10.884;2022-08-21T00:16:26;16.35;92.17
66722;SHT31;53633;49.932;10.884;2022-08-21T00:18:52;16.72;91.40
66722;SHT31;53633;49.932;10.884;2022-08-21T00:21:20;16.54;91.81
66722;SHT31;53633;49.932;10.884;2022-08-21T00:23:47;16.47;92.19
66722;SHT31;53633;49.932;10.884;2022-08-21T00:26:14;16.49;92.59
66722;SHT31;53633;49.932;10.884;2022-08-21T00:28:41;16.57;92.53
66722;SHT31;53633;49.932;10.884;2022-08-21T00:31:07;16.64;92.42
66722;SHT31;53633;49.932;10.884;2022-08-21T00:33:34;16.55;92.05
66722;SHT31;53633;49.932;10.884;2022-08-21T00:36:01;16.62;91.83
66722;SHT31;53633;49.932;10.884;2022-08-21T00:38:29;16.52;92.29
66722;SHT31;53633;49.932;10.884;2022-08-21T00:40:59;16.42;92.44
66722;SHT31;53633;49.932;10.884;2022-08-21T00:43:46;16.41;92.54
66722;SHT31;53633;49.932;10.884;2022-08-21T00:46:13;16.45;92.62
66722;SHT31;53633;49.932;10.884;2022-08-21T00:48:39;16.72;91.39
66722;SHT31;53633;49.932;10.884;2022-08-21T00:51:08;16.45;91.48
66722;SHT31;53633;49.932;10.884;2022-08-21T00:53:39;16.20;92.16
66722;SHT31;53633;49.932;10.884;2022-08-21T00:56:08;16.21;92.46
66722;SHT31;53633;49.932;10.884;2022-08-21T00:58:37;16.22;92.56
66722;SHT31;53633;49.932;10.884;2022-08-21T01:01:07;16.10;92.39
66722;SHT31;53633;49.932;10.884;2022-08-21T01:03:35;15.93;92.86
66722;SHT31;53633;49.932;10.884;2022-08-21T01:06:04;15.86;93.19
66722;SHT31;53633;49.932;10.884;2022-08-21T01:08:31;15.92;93.04
66722;SHT31;53633;49.932;10.884;2022-08-21T01:11:00;16.16;92.82
66722;SHT31;53633;49.932;10.884;2022-08-21T01:13:32;16.14;92.39
66722;SHT31;53633;49.932;10.884;2022-08-21T01:16:02;16.00;92.88
66722;SHT31;53633;49.932;10.884;2022-08-21T01:18:30;16.16;92.32
66722;SHT31;53633;49.932;10.884;2022-08-21T01:21:07;16.14;92.35
66722;SHT31;53633;49.932;10.884;2022-08-21T01:23:41;16.14;92.75
66722;SHT31;53633;49.932;10.884;2022-08-21T01:26:08;16.22;92.48
66722;SHT31;53633;49.932;10.884;2022-08-21T01:28:38;16.10;92.64
66722;SHT31;53633;49.932;10.884;2022-08-21T01:31:08;16.10;92.85
66722;SHT31;53633;49.932;10.884;2022-08-21T01:33:36;16.16;92.72
66722;SHT31;53633;49.932;10.884;2022-08-21T01:36:05;16.27;92.25
66722;SHT31;53633;49.932;10.884;2022-08-21T01:38:32;16.09;92.47
66722;SHT31;53633;49.932;10.884;2022-08-21T01:40:58;16.01;92.62
66722;SHT31;53633;49.932;10.884;2022-08-21T01:43:25;16.00;92.85
66722;SHT31;53633;49.932;10.884;2022-08-21T01:46:05;15.89;93.06
66722;SHT31;53633;49.932;10.884;2022-08-21T01:48:32;15.93;93.31
66722;SHT31;53633;49.932;10.884;2022-08-21T01:50:59;16.09;93.17
66722;SHT31;53633;49.932;10.884;2022-08-21T01:53:27;16.03;93.14
66722;SHT31;53633;49.932;10.884;2022-08-21T01:55:59;16.07;93.15
66722;SHT31;53633;49.932;10.884;2022-08-21T01:58:25;16.17;93.17
66722;SHT31;53633;49.932;10.884;2022-08-21T02:00:52;16.22;93.22
66722;SHT31;53633;49.932;10.884;2022-08-21T02:03:19;16.09;93.12
66722;SHT31;53633;49.932;10.884;2022-08-21T02:06:02;16.17;93.35
66722;SHT31;53633;49.932;10.884;2022-08-21T02:08:30;16.16;93.39
66722;SHT31;53633;49.932;10.884;2022-08-21T02:10:57;16.13;93.51
66722;SHT31;53633;49.932;10.884;2022-08-21T02:13:24;16.01;93.52
66722;SHT31;53633;49.932;10.884;2022-08-21T02:15:50;16.06;93.73
66722;SHT31;53633;49.932;10.884;2022-08-21T02:18:17;16.24;93.53
66722;SHT31;53633;49.932;10.884;2022-08-21T02:20:46;16.31;93.50
66722;SHT31;53633;49.932;10.884;2022-08-21T02:23:13;16.38;92.86
66722;SHT31;53633;49.932;10.884;2022-08-21T02:25:42;16.42;92.71
66722;SHT31;53633;49.932;10.884;2022-08-21T02:28:12;16.45;92.48
66722;SHT31;53633;49.932;10.884;2022-08-21T02:30:42;16.34;93.05
66722;SHT31;53633;49.932;10.884;2022-08-21T02:33:10;16.41;93.19
66722;SHT31;53633;49.932;10.884;2022-08-21T02:35:39;16.55;92.76
66722;SHT31;53633;49.932;10.884;2022-08-21T02:38:08;16.83;91.98
66722;SHT31;53633;49.932;10.884;2022-08-21T02:40:40;16.68;92.18
66722;SHT31;53633;49.932;10.884;2022-08-21T02:43:16;17.00;91.33
66722;SHT31;53633;49.932;10.884;2022-08-21T02:45:44;17.02;91.09
66722;SHT31;53633;49.932;10.884;2022-08-21T02:48:13;17.12;90.70
66722;SHT31;53633;49.932;10.884;2022-08-21T02:50:43;17.20;90.60
66722;SHT31;53633;49.932;10.884;2022-08-21T02:53:12;17.00;91.20
66722;SHT31;53633;49.932;10.884;2022-08-21T02:55:39;17.20;90.72
66722;SHT31;53633;49.932;10.884;2022-08-21T02:58:07;17.12;90.76
66722;SHT31;53633;49.932;10.884;2022-08-21T03:00:36;17.34;89.91
66722;SHT31;53633;49.932;10.884;2022-08-21T03:03:04;17.19;90.45
66722;SHT31;53633;49.932;10.884;2022-08-21T03:05:32;17.20;89.80
66722;SHT31;53633;49.932;10.884;2022-08-21T03:08:00;17.24;89.65
66722;SHT31;53633;49.932;10.884;2022-08-21T03:10:28;17.16;89.85
66722;SHT31;53633;49.932;10.884;2022-08-21T03:12:55;17.17;89.40
66722;SHT31;53633;49.932;10.884;2022-08-21T03:15:22;17.17;89.57
66722;SHT31;53633;49.932;10.884;2022-08-21T03:17:51;17.34;89.21
66722;SHT31;53633;49.932;10.884;2022-08-21T03:20:19;17.31;89.15
66722;SHT31;53633;49.932;10.884;2022-08-21T03:22:46;17.47;88.77
66722;SHT31;53633;49.932;10.884;2022-08-21T03:25:19;17.40;89.03
66722;SHT31;53633;49.932;10.884;2022-08-21T03:27:59;17.27;89.32
66722;SHT31;53633;49.932;10.884;2022-08-21T03:30:26;17.14;89.57
66722;SHT31;53633;49.932;10.884;2022-08-21T03:32:55;17.17;89.78
66722;SHT31;53633;49.932;10.884;2022-08-21T03:35:23;17.20;89.37
66722;SHT31;53633;49.932;10.884;2022-08-21T03:37:50;17.10;89.44
66722;SHT31;53633;49.932;10.884;2022-08-21T03:40:18;17.27;89.08
66722;SHT31;53633;49.932;10.884;2022-08-21T03:42:45;17.30;88.83
66722;SHT31;53633;49.932;10.884;2022-08-21T03:45:11;17.16;89.38
66722;SHT31;53633;49.932;10.884;2022-08-21T03:47:38;17.19;89.09
66722;SHT31;53633;49.932;10.884;2022-08-21T03:50:07;17.33;88.78
66722;SHT31;53633;49.932;10.884;2022-08-21T03:52:33;17.22;89.22
66722;SHT31;53633;49.932;10.884;2022-08-21T03:55:00;17.04;89.79
66722;SHT31;53633;49.932;10.884;2022-08-21T03:57:27;16.97;90.13
66722;SHT31;53633;49.932;10.884;2022-08-21T03:59:53;16.69;90.61
66722;SHT31;53633;49.932;10.884;2022-08-21T04:02:21;16.71;90.76
66722;SHT31;53633;49.932;10.884;2022-08-21T04:04:48;16.64;90.78
66722;SHT31;53633;49.932;10.884;2022-08-21T04:07:16;16.40;90.82
66722;SHT31;53633;49.932;10.884;2022-08-21T04:09:42;16.58;89.54
66722;SHT31;53633;49.932;10.884;2022-08-21T04:12:09;16.54;89.78
66722;SHT31;53633;49.932;10.884;2022-08-21T04:14:36;16.22;90.28
66722;SHT31;53633;49.932;10.884;2022-08-21T04:17:03;16.14;91.10
66722;SHT31;53633;49.932;10.884;2022-08-21T04:19:29;15.87;91.29
66722;SHT31;53633;49.932;10.884;2022-08-21T04:21:56;16.18;90.96
66722;SHT31;53633;49.932;10.884;2022-08-21T04:24:24;16.20;90.94
66722;SHT31;53633;49.932;10.884;2022-08-21T04:26:55;16.09;90.97
66722;SHT31;53633;49.932;10.884;2022-08-21T04:29:22;16.47;90.13
66722;SHT31;53633;49.932;10.884;2022-08-21T04:31:48;16.48;89.58
66722;SHT31;53633;49.932;10.884;2022-08-21T04:34:15;16.42;89.60
66722;SHT31;53633;49.932;10.884;2022-08-21T04:36:42;15.99;90.56
66722;SHT31;53633;49.932;10.884;2022-08-21T04:39:08;16.09;90.88
66722;SHT31;53633;49.932;10.884;2022-08-21T04:41:37;16.16;90.62
66722;SHT31;53633;49.932;10.884;2022-08-21T04:44:03;16.13;90.89
66722;SHT31;53633;49.932;10.884;2022-08-21T04:46:30;15.86;91.45
66722;SHT31;53633;49.932;10.884;2022-08-21T04:48:57;15.75;91.77
66722;SHT31;53633;49.932;10.884;2022-08-21T04:51:25;15.69;91.97
66722;SHT31;53633;49.932;10.884;2022-08-21T04:53:59;15.78;92.40
66722;SHT31;53633;49.932;10.884;2022-08-21T04:56:31;15.78;91.53
66722;SHT31;53633;49.932;10.884;2022-08-21T04:59:02;15.69;92.02
66722;SHT31;53633;49.932;10.884;2022-08-21T05:01:33;15.75;92.19
66722;SHT31;53633;49.932;10.884;2022-08-21T05:04:02;15.79;92.55
66722;SHT31;53633;49.932;10.884;2022-08-21T05:06:32;15.86;92.34
66722;SHT31;53633;49.932;10.884;2022-08-21T05:09:00;16.04;92.22
66722;SHT31;53633;49.932;10.884;2022-08-21T05:11:28;16.22;91.44
66722;SHT31;53633;49.932;10.884;2022-08-21T05:13:55;16.18;91.45
66722;SHT31;53633;49.932;10.884;2022-08-21T05:16:24;16.48;90.61
66722;SHT31;53633;49.932;10.884;2022-08-21T05:19:03;16.44;90.58
66722;SHT31;53633;49.932;10.884;2022-08-21T05:21:30;16.24;90.81
66722;SHT31;53633;49.932;10.884;2022-08-21T05:23:59;16.20;91.20
66722;SHT31;53633;49.932;10.884;2022-08-21T05:26:26;16.37;90.96
66722;SHT31;53633;49.932;10.884;2022-08-21T05:28:53;16.48;90.99
66722;SHT31;53633;49.932;10.884;2022-08-21T05:31:21;16.62;90.12
66722;SHT31;53633;49.932;10.884;2022-08-21T05:33:49;16.41;90.91
66722;SHT31;53633;49.932;10.884;2022-08-21T05:36:17;16.61;90.55
66722;SHT31;53633;49.932;10.884;2022-08-21T05:38:44;16.83;89.62
66722;SHT31;53633;49.932;10.884;2022-08-21T05:41:11;17.06;88.92
66722;SHT31;53633;49.932;10.884;2022-08-21T05:43:38;17.19;88.58
66722;SHT31;53633;49.932;10.884;2022-08-21T05:46:05;17.24;88.24
66722;SHT31;53633;49.932;10.884;2022-08-21T05:48:33;17.16;88.44
66722;SHT31;53633;49.932;10.884;2022-08-21T05:51:06;17.20;88.26
66722;SHT31;53633;49.932;10.884;2022-08-21T05:53:34;17.41;87.83
66722;SHT31;53633;49.932;10.884;2022-08-21T05:56:02;17.48;87.47
66722;SHT31;53633;49.932;10.884;2022-08-21T05:58:29;17.27;88.22
66722;SHT31;53633;49.932;10.884;2022-08-21T06:00:56;17.35;88.08
66722;SHT31;53633;49.932;10.884;2022-08-21T06:03:25;17.35;87.66
66722;SHT31;53633;49.932;10.884;2022-08-21T06:05:53;17.17;88.49
66722;SHT31;53633;49.932;10.884;2022-08-21T06:08:22;17.12;88.05
66722;SHT31;53633;49.932;10.884;2022-08-21T06:10:50;17.14;88.40
66722;SHT31;53633;49.932;10.884;2022-08-21T06:13:18;17.23;88.47
66722;SHT31;53633;49.932;10.884;2022-08-21T06:15:45;17.37;87.71
66722;SHT31;53633;49.932;10.884;2022-08-21T06:18:12;17.35;87.93
66722;SHT31;53633;49.932;10.884;2022-08-21T06:20:39;17.42;88.18
66722;SHT31;53633;49.932;10.884;2022-08-21T06:23:06;17.65;87.26
66722;SHT31;53633;49.932;10.884;2022-08-21T06:25:35;17.55;87.39
66722;SHT31;53633;49.932;10.884;2022-08-21T06:28:02;17.62;87.46
66722;SHT31;53633;49.932;10.884;2022-08-21T06:30:30;17.77;87.46
66722;SHT31;53633;49.932;10.884;2022-08-21T06:32:56;17.85;86.89
66722;SHT31;53633;49.932;10.884;2022-08-21T06:35:23;17.83;87.05
66722;SHT31;53633;49.932;10.884;2022-08-21T06:37:50;17.92;86.38
66722;SHT31;53633;49.932;10.884;2022-08-21T06:40:17;17.92;86.40
66722;SHT31;53633;49.932;10.884;2022-08-21T06:42:46;17.79;86.75
66722;SHT31;53633;49.932;10.884;2022-08-21T06:45:13;17.85;86.81
66722;SHT31;53633;49.932;10.884;2022-08-21T06:47:40;17.92;86.40
66722;SHT31;53633;49.932;10.884;2022-08-21T06:50:08;18.07;86.03
66722;SHT31;53633;49.932;10.884;2022-08-21T06:52:36;18.02;86.33
66722;SHT31;53633;49.932;10.884;2022-08-21T06:55:05;17.92;87.14
66722;SHT31;53633;49.932;10.884;2022-08-21T06:57:33;17.81;87.37
66722;SHT31;53633;49.932;10.884;2022-08-21T07:00:02;17.98;86.67
66722;SHT31;53633;49.932;10.884;2022-08-21T07:02:29;17.98;87.06
66722;SHT31;53633;49.932;10.884;2022-08-21T07:04:55;18.02;86.68
66722;SHT31;53633;49.932;10.884;2022-08-21T07:07:22;18.02;86.63
66722;SHT31;53633;49.932;10.884;2022-08-21T07:09:49;18.25;85.92
66722;SHT31;53633;49.932;10.884;2022-08-21T07:12:16;18.34;85.69
66722;SHT31;53633;49.932;10.884;2022-08-21T07:14:42;18.37;85.94
66722;SHT31;53633;49.932;10.884;2022-08-21T07:17:10;18.37;85.59
66722;SHT31;53633;49.932;10.884;2022-08-21T07:19:37;18.33;86.15
66722;SHT31;53633;49.932;10.884;2022-08-21T07:22:04;18.43;85.52
66722;SHT31;53633;49.932;10.884;2022-08-21T07:24:30;18.44;85.94
66722;SHT31;53633;49.932;10.884;2022-08-21T07:26:57;18.16;86.28
66722;SHT31;53633;49.932;10.884;2022-08-21T07:29:24;18.23;86.59
66722;SHT31;53633;49.932;10.884;2022-08-21T07:31:51;18.37;85.50
66722;SHT31;53633;49.932;10.884;2022-08-21T07:34:19;18.30;85.83
66722;SHT31;53633;49.932;10.884;2022-08-21T07:36:45;18.58;85.24
66722;SHT31;53633;49.932;10.884;2022-08-21T07:39:12;18.61;84.87
66722;SHT31;53633;49.932;10.884;2022-08-21T07:41:38;18.34;85.51
66722;SHT31;53633;49.932;10.884;2022-08-21T07:44:05;18.37;86.60
66722;SHT31;53633;49.932;10.884;2022-08-21T07:46:32;18.54;86.00
66722;SHT31;53633;49.932;10.884;2022-08-21T07:48:59;18.74;85.16
66722;SHT31;53633;49.932;10.884;2022-08-21T07:51:28;18.89;84.57
66722;SHT31;53633;49.932;10.884;2022-08-21T07:53:57;18.99;84.53
66722;SHT31;53633;49.932;10.884;2022-08-21T07:56:24;19.12;84.00
66722;SHT31;53633;49.932;10.884;2022-08-21T07:58:51;19.23;83.47
66722;SHT31;53633;49.932;10.884;2022-08-21T08:01:18;19.34;83.36
66722;SHT31;53633;49.932;10.884;2022-08-21T08:03:45;19.47;83.03
66722;SHT31;53633;49.932;10.884;2022-08-21T08:06:13;19.60;82.21
66722;SHT31;53633;49.932;10.884;2022-08-21T08:08:41;19.67;82.03
66722;SHT31;53633;49.932;10.884;2022-08-21T08:11:08;19.71;81.81
66722;SHT31;53633;49.932;10.884;2022-08-21T08:13:38;19.66;82.96
66722;SHT31;53633;49.932;10.884;2022-08-21T08:16:05;19.88;82.22
66722;SHT31;53633;49.932;10.884;2022-08-21T08:18:32;19.58;82.17
66722;SHT31;53633;49.932;10.884;2022-08-21T08:20:59;19.82;82.18
66722;SHT31;53633;49.932;10.884;2022-08-21T08:23:26;19.95;82.26
66722;SHT31;53633;49.932;10.884;2022-08-21T08:25:54;20.01;81.51
66722;SHT31;53633;49.932;10.884;2022-08-21T08:28:20;20.42;81.22
66722;SHT31;53633;49.932;10.884;2022-08-21T08:30:50;20.74;78.99
66722;SHT31;53633;49.932;10.884;2022-08-21T08:33:17;20.78;78.69
66722;SHT31;53633;49.932;10.884;2022-08-21T08:35:46;20.74;79.51
66722;SHT31;53633;49.932;10.884;2022-08-21T08:38:14;21.04;78.64
66722;SHT31;53633;49.932;10.884;2022-08-21T08:40:47;21.21;78.56
66722;SHT31;53633;49.932;10.884;2022-08-21T08:43:18;20.95;78.35
66722;SHT31;53633;49.932;10.884;2022-08-21T08:45:50;21.01;78.46
66722;SHT31;53633;49.932;10.884;2022-08-21T08:48:31;20.80;77.99
66722;SHT31;53633;49.932;10.884;2022-08-21T08:51:05;21.19;78.47
66722;SHT31;53633;49.932;10.884;2022-08-21T08:53:40;21.18;78.43
66722;SHT31;53633;49.932;10.884;2022-08-21T08:56:11;21.83;76.16
66722;SHT31;53633;49.932;10.884;2022-08-21T08:58:42;22.75;74.48
66722;SHT31;53633;49.932;10.884;2022-08-21T09:01:15;22.73;73.08
66722;SHT31;53633;49.932;10.884;2022-08-21T09:03:42;22.97;71.78
66722;SHT31;53633;49.932;10.884;2022-08-21T09:06:18;22.96;71.47
66722;SHT31;53633;49.932;10.884;2022-08-21T09:08:54;23.02;71.46
66722;SHT31;53633;49.932;10.884;2022-08-21T09:11:29;23.25;71.22
66722;SHT31;53633;49.932;10.884;2022-08-21T09:14:06;23.22;71.09
66722;SHT31;53633;49.932;10.884;2022-08-21T09:16:40;23.75;69.90
66722;SHT31;53633;49.932;10.884;2022-08-21T09:19:27;24.47;68.82
66722;SHT31;53633;49.932;10.884;2022-08-21T09:22:03;24.69;64.86
66722;SHT31;53633;49.932;10.884;2022-08-21T09:24:39;25.64;63.90
66722;SHT31;53633;49.932;10.884;2022-08-21T09:27:12;26.26;63.20
66722;SHT31;53633;49.932;10.884;2022-08-21T09:29:44;26.65;61.14
66722;SHT31;53633;49.932;10.884;2022-08-21T09:32:16;26.11;61.50
66722;SHT31;53633;49.932;10.884;2022-08-21T09:34:56;25.89;62.95
66722;SHT31;53633;49.932;10.884;2022-08-21T09:37:24;25.92;62.68
66722;SHT31;53633;49.932;10.884;2022-08-21T09:39:51;26.26;62.42
66722;SHT31;53633;49.932;10.884;2022-08-21T09:42:22;26.36;61.54
66722;SHT31;53633;49.932;10.884;2022-08-21T09:45:08;25.16;63.69
66722;SHT31;53633;49.932;10.884;2022-08-21T09:47:35;25.15;65.08
66722;SHT31;53633;49.932;10.884;2022-08-21T09:50:10;25.53;63.45
66722;SHT31;53633;49.932;10.884;2022-08-21T09:52:43;26.22;61.19
66722;SHT31;53633;49.932;10.884;2022-08-21T09:55:16;26.33;60.81
66722;SHT31;53633;49.932;10.884;2022-08-21T09:57:47;25.98;61.14
66722;SHT31;53633;49.932;10.884;2022-08-21T10:00:24;25.91;60.41
66722;SHT31;53633;49.932;10.884;2022-08-21T10:02:51;26.78;59.18
66722;SHT31;53633;49.932;10.884;2022-08-21T10:05:22;26.25;60.92
66722;SHT31;53633;49.932;10.884;2022-08-21T10:07:49;26.18;58.50
66722;SHT31;53633;49.932;10.884;2022-08-21T10:10:19;26.49;59.37
66722;SHT31;53633;49.932;10.884;2022-08-21T10:12:53;26.35;59.80
66722;SHT31;53633;49.932;10.884;2022-08-21T10:15:28;26.41;60.61
66722;SHT31;53633;49.932;10.884;2022-08-21T10:18:03;27.29;57.61
66722;SHT31;53633;49.932;10.884;2022-08-21T10:20:39;26.50;59.20
66722;SHT31;53633;49.932;10.884;2022-08-21T10:23:21;26.23;60.20
66722;SHT31;53633;49.932;10.884;2022-08-21T10:25:56;25.84;59.86
66722;SHT31;53633;49.932;10.884;2022-08-21T10:28:45;25.28;61.31
66722;SHT31;53633;49.932;10.884;2022-08-21T10:31:27;24.93;63.29
66722;SHT31;53633;49.932;10.884;2022-08-21T10:34:10;24.60;64.97
66722;SHT31;53633;49.932;10.884;2022-08-21T10:36:46;24.41;64.02
66722;SHT31;53633;49.932;10.884;2022-08-21T10:39:21;24.44;65.94
66722;SHT31;53633;49.932;10.884;2022-08-21T10:42:13;24.17;64.11
66722;SHT31;53633;49.932;10.884;2022-08-21T10:44:49;24.38;65.04
66722;SHT31;53633;49.932;10.884;2022-08-21T10:47:28;24.00;64.99
66722;SHT31;53633;49.932;10.884;2022-08-21T10:50:03;24.07;65.09
66722;SHT31;53633;49.932;10.884;2022-08-21T10:52:48;24.13;64.63
66722;SHT31;53633;49.932;10.884;2022-08-21T10:55:21;24.20;64.47
66722;SHT31;53633;49.932;10.884;2022-08-21T10:57:51;24.13;64.28
66722;SHT31;53633;49.932;10.884;2022-08-21T11:00:22;23.99;63.88
66722;SHT31;53633;49.932;10.884;2022-08-21T11:02:57;23.73;63.62
66722;SHT31;53633;49.932;10.884;2022-08-21T11:05:27;23.82;62.68
66722;SHT31;53633;49.932;10.884;2022-08-21T11:08:07;23.92;63.35
66722;SHT31;53633;49.932;10.884;2022-08-21T11:10:39;23.97;63.61
66722;SHT31;53633;49.932;10.884;2022-08-21T11:13:27;23.73;63.77
66722;SHT31;53633;49.932;10.884;2022-08-21T11:16:03;23.66;65.54
66722;SHT31;53633;49.932;10.884;2022-08-21T11:18:36;23.31;63.18
66722;SHT31;53633;49.932;10.884;2022-08-21T11:21:20;23.25;62.28
66722;SHT31;53633;49.932;10.884;2022-08-21T11:23:57;23.11;63.21
66722;SHT31;53633;49.932;10.884;2022-08-21T11:26:32;23.38;62.48
66722;SHT31;53633;49.932;10.884;2022-08-21T11:29:05;23.34;62.95
66722;SHT31;53633;49.932;10.884;2022-08-21T11:31:45;23.48;62.47
66722;SHT31;53633;49.932;10.884;2022-08-21T11:34:25;23.54;61.44
66722;SHT31;53633;49.932;10.884;2022-08-21T11:37:02;23.63;60.36
66722;SHT31;53633;49.932;10.884;2022-08-21T11:39:38;23.79;57.95
66722;SHT31;53633;49.932;10.884;2022-08-21T11:42:15;23.89;57.13
66722;SHT31;53633;49.932;10.884;2022-08-21T11:44:49;23.85;56.32
66722;SHT31;53633;49.932;10.884;2022-08-21T11:47:25;23.73;55.77
66722;SHT31;53633;49.932;10.884;2022-08-21T11:50:06;23.99;55.94
66722;SHT31;53633;49.932;10.884;2022-08-21T11:52:59;23.86;55.31
66722;SHT31;53633;49.932;10.884;2022-08-21T11:55:31;23.76;54.83
66722;SHT31;53633;49.932;10.884;2022-08-21T11:58:04;23.78;53.67
66722;SHT31;53633;49.932;10.884;2022-08-21T12:00:34;23.86;52.64
66722;SHT31;53633;49.932;10.884;2022-08-21T12:03:08;24.05;53.33
66722;SHT31;53633;49.932;10.884;2022-08-21T12:05:40;24.13;53.82
66722;SHT31;53633;49.932;10.884;2022-08-21T12:08:13;24.28;50.61
66722;SHT31;53633;49.932;10.884;2022-08-21T12:10:42;24.31;53.30
66722;SHT31;53633;49.932;10.884;2022-08-21T12:13:24;24.34;53.42
66722;SHT31;53633;49.932;10.884;2022-08-21T12:16:08;24.37;53.38
66722;SHT31;53633;49.932;10.884;2022-08-21T12:18:36;24.38;51.87
66722;SHT31;53633;49.932;10.884;2022-08-21T12:21:16;24.44;52.35
66722;SHT31;53633;49.932;10.884;2022-08-21T12:23:46;24.31;50.66
66722;SHT31;53633;49.932;10.884;2022-08-21T12:26:22;24.57;50.30
66722;SHT31;53633;49.932;10.884;2022-08-21T12:28:49;24.72;53.45
66722;SHT31;53633;49.932;10.884;2022-08-21T12:31:22;24.69;52.66
66722;SHT31;53633;49.932;10.884;2022-08-21T12:33:53;24.62;50.02
66722;SHT31;53633;49.932;10.884;2022-08-21T12:36:25;24.62;49.57
66722;SHT31;53633;49.932;10.884;2022-08-21T12:38:57;24.57;49.76
66722;SHT31;53633;49.932;10.884;2022-08-21T12:41:27;24.45;49.36
66722;SHT31;53633;49.932;10.884;2022-08-21T12:43:57;24.54;50.10
66722;SHT31;53633;49.932;10.884;2022-08-21T12:46:31;24.64;51.42
66722;SHT31;53633;49.932;10.884;2022-08-21T12:49:02;24.76;51.86
66722;SHT31;53633;49.932;10.884;2022-08-21T12:51:36;24.75;52.30
66722;SHT31;53633;49.932;10.884;2022-08-21T12:54:04;24.76;49.94
66722;SHT31;53633;49.932;10.884;2022-08-21T12:56:35;24.71;50.31
66722;SHT31;53633;49.932;10.884;2022-08-21T12:59:05;24.79;51.84
66722;SHT31;53633;49.932;10.884;2022-08-21T13:01:35;24.81;50.66
66722;SHT31;53633;49.932;10.884;2022-08-21T13:04:10;24.78;50.84
66722;SHT31;53633;49.932;10.884;2022-08-21T13:06:42;24.83;49.63
66722;SHT31;53633;49.932;10.884;2022-08-21T13:09:12;24.86;50.30
66722;SHT31;53633;49.932;10.884;2022-08-21T13:11:41;24.86;50.73
66722;SHT31;53633;49.932;10.884;2022-08-21T13:14:14;24.95;50.87
66722;SHT31;53633;49.932;10.884;2022-08-21T13:16:53;24.96;49.99
66722;SHT31;53633;49.932;10.884;2022-08-21T13:19:20;25.20;48.84
66722;SHT31;53633;49.932;10.884;2022-08-21T13:21:51;25.26;48.79
66722;SHT31;53633;49.932;10.884;2022-08-21T13:24:20;25.26;48.71
66722;SHT31;53633;49.932;10.884;2022-08-21T13:27:19;25.24;49.48
66722;SHT31;53633;49.932;10.884;2022-08-21T13:29:48;25.22;46.20
66722;SHT31;53633;49.932;10.884;2022-08-21T13:32:22;25.22;47.63
66722;SHT31;53633;49.932;10.884;2022-08-21T13:34:51;25.23;46.19
66722;SHT31;53633;49.932;10.884;2022-08-21T13:37:22;25.38;47.79
66722;SHT31;53633;49.932;10.884;2022-08-21T13:39:51;25.36;45.08
66722;SHT31;53633;49.932;10.884;2022-08-21T13:42:18;25.40;47.61
66722;SHT31;53633;49.932;10.884;2022-08-21T13:44:47;25.38;46.82
66722;SHT31;53633;49.932;10.884;2022-08-21T13:47:15;25.44;46.07
66722;SHT31;53633;49.932;10.884;2022-08-21T13:49:45;25.54;44.55
66722;SHT31;53633;49.932;10.884;2022-08-21T13:52:14;25.65;44.54
66722;SHT31;53633;49.932;10.884;2022-08-21T13:54:43;25.71;43.80
66722;SHT31;53633;49.932;10.884;2022-08-21T13:57:16;25.71;44.40
66722;SHT31;53633;49.932;10.884;2022-08-21T13:59:44;25.81;43.20
66722;SHT31;53633;49.932;10.884;2022-08-21T14:02:13;25.98;43.96
66722;SHT31;53633;49.932;10.884;2022-08-21T14:04:49;26.12;42.92
66722;SHT31;53633;49.932;10.884;2022-08-21T14:07:22;26.16;43.38
66722;SHT31;53633;49.932;10.884;2022-08-21T14:09:52;26.16;43.93
66722;SHT31;53633;49.932;10.884;2022-08-21T14:12:34;26.09;42.99
66722;SHT31;53633;49.932;10.884;2022-08-21T14:15:04;26.13;42.48
66722;SHT31;53633;49.932;10.884;2022-08-21T14:17:34;26.12;42.99
66722;SHT31;53633;49.932;10.884;2022-08-21T14:20:04;26.11;42.81
66722;SHT31;53633;49.932;10.884;2022-08-21T14:22:37;26.06;42.48
66722;SHT31;53633;49.932;10.884;2022-08-21T14:25:08;26.09;42.92
66722;SHT31;53633;49.932;10.884;2022-08-21T14:27:40;26.11;42.85
66722;SHT31;53633;49.932;10.884;2022-08-21T14:30:12;26.08;42.17
66722;SHT31;53633;49.932;10.884;2022-08-21T14:32:40;26.08;43.12
66722;SHT31;53633;49.932;10.884;2022-08-21T14:35:12;26.08;42.38
66722;SHT31;53633;49.932;10.884;2022-08-21T14:37:41;26.03;42.27
66722;SHT31;53633;49.932;10.884;2022-08-21T14:40:11;25.98;42.33
66722;SHT31;53633;49.932;10.884;2022-08-21T14:42:39;26.01;43.32
66722;SHT31;53633;49.932;10.884;2022-08-21T14:45:11;25.91;42.90
66722;SHT31;53633;49.932;10.884;2022-08-21T14:47:39;25.84;42.69
66722;SHT31;53633;49.932;10.884;2022-08-21T14:50:06;25.95;43.82
66722;SHT31;53633;49.932;10.884;2022-08-21T14:52:33;25.78;43.95
66722;SHT31;53633;49.932;10.884;2022-08-21T14:55:00;25.74;44.94
66722;SHT31;53633;49.932;10.884;2022-08-21T14:57:31;25.75;44.82
66722;SHT31;53633;49.932;10.884;2022-08-21T14:59:58;25.73;44.76
66722;SHT31;53633;49.932;10.884;2022-08-21T15:02:27;25.80;45.31
66722;SHT31;53633;49.932;10.884;2022-08-21T15:04:54;25.82;45.20
66722;SHT31;53633;49.932;10.884;2022-08-21T15:07:21;25.86;44.06
66722;SHT31;53633;49.932;10.884;2022-08-21T15:09:48;26.02;42.98
66722;SHT31;53633;49.932;10.884;2022-08-21T15:12:14;25.93;42.91
66722;SHT31;53633;49.932;10.884;2022-08-21T15:14:43;25.89;42.54
66722;SHT31;53633;49.932;10.884;2022-08-21T15:17:10;25.96;43.02
66722;SHT31;53633;49.932;10.884;2022-08-21T15:19:37;25.93;43.01
66722;SHT31;53633;49.932;10.884;2022-08-21T15:22:05;25.95;42.47
66722;SHT31;53633;49.932;10.884;2022-08-21T15:24:41;25.89;42.51
66722;SHT31;53633;49.932;10.884;2022-08-21T15:27:09;25.82;42.92
66722;SHT31;53633;49.932;10.884;2022-08-21T15:29:36;25.84;43.30
66722;SHT31;53633;49.932;10.884;2022-08-21T15:32:17;25.81;44.14
66722;SHT31;53633;49.932;10.884;2022-08-21T15:34:44;25.77;42.37